• Join FlightAware (Why Join?)
  • Login
  • US Flag 
08:51AM EST


 

Airport Tracker/Info


-or-


 

Live Flight TrackerFlight Track Log ✈ FLG3862 ✈ 18-Apr-2013 ✈ KDTW - KBTV

Flight Track Log - Related Links

Times and Time Zones

All times are in EDT time to prevent confusion due to time zone crossing. See the FLG3862 flight status page for this flight to view local times or setup timezone preferences in your user account.

Time Position Orientation Groundspeed Altitude Reporting Facility
EDT Latitude Longitude Course Direction KTS MPH feet Rate Location/Type
11:19AM 42.2100 -83.3531 90° East 136 157 1,400  Level Cleveland Center
11:20AM 42.1644 -83.3397 168° South 179 206 4,300 2,460 Climbing Cleveland Center
11:21AM 42.1136 -83.2928 146° Southeast 289 333 6,400 2,340 Climbing Cleveland Center
11:22AM 42.3193 -82.7239 82° East  Level FlightAware Approximate
11:22AM 42.0886 -83.1964 109° East 304 350 8,800  Level Cleveland Center
11:23AM 42.3381 -82.5643 71° East  Level FlightAware Approximate
11:23AM 42.1122 -83.0772 75° East 337 388 10,600  Level Cleveland Center
11:24AM 42.3667 -82.4119 90° East  Level FlightAware Approximate
11:24AM 42.1669 -82.9419 61° Northeast 353 406 11,800  Level Cleveland Center
11:25AM 42.2261 -82.8011 60° Northeast 393 452 13,000 1,200 Climbing Cleveland Center
11:26AM 42.2853 -82.6544 61° Northeast 412 474 14,300 1,260 Climbing Cleveland Center
11:27AM 42.3442 -82.5075 61° Northeast 433 498 15,600 1,140 Climbing Cleveland Center
11:28AM 42.3653 -82.3453 80° East 427 491 16,600 960 Climbing Cleveland Center
11:29AM 42.3553 -82.1792 95° East 427 491 17,600 1,080 Climbing Cleveland Center
11:30AM 42.3511 -82.0217 92° East 440 506 18,800 1,080 Climbing Cleveland Center
11:31AM 42.3428 -81.8500 94° East 456 525 19,800 960 Climbing Cleveland Center
11:32AM 42.3361 -81.6814 93° East 456 525 20,800 960 Climbing Cleveland Center
11:33AM 42.3272 -81.5128 94° East 456 525 21,800 960 Climbing Cleveland Center
11:34AM 42.3181 -81.3272 94° East 456 525 22,800 960 Climbing Cleveland Center
11:35AM 42.3086 -81.1586 94° East 456 525 23,800 840 Climbing Cleveland Center
11:36AM 42.3011 -80.9875 93° East 456 525 24,500 660 Climbing Cleveland Center
11:37AM 42.2911 -80.8189 95° East 456 525 25,200 600 Climbing Cleveland Center
11:38AM 42.2808 -80.6450 95° East 462 532 25,700 480 Climbing Cleveland Center
11:39AM 42.2725 -80.4708 94° East 468 539 26,200 480 Climbing Cleveland Center
11:40AM 42.2619 -80.2942 95° East 463 533 26,700 480 Climbing Cleveland Center
11:41AM 42.2697 -80.1203 86° East 463 533 27,200 480 Climbing Cleveland Center
11:42AM 42.3106 -79.9514 72° East 463 533 27,700 480 Climbing Cleveland Center
11:43AM 42.3533 -79.7769 72° East 475 547 28,200 480 Climbing Cleveland Center
11:44AM 42.3956 -79.6047 72° East 480 552 28,700 360 Climbing Cleveland Center
11:45AM 42.4358 -79.4325 72° East 480 552 29,000 120 Climbing Cleveland Center
11:46AM 42.4758 -79.2769 71° East 480 552 29,000  Level Cleveland Center
11:47AM 42.5194 -79.0986 72° East 486 559 29,000  Level Cleveland Center
11:48AM 42.5589 -78.9231 73° East 486 559 29,000  Level Cleveland Center
11:49AM 42.6019 -78.7442 72° East 486 559 29,000  Level Cleveland Center
11:50AM 42.6447 -78.5678 72° East 486 559 29,000  Level Cleveland Center
11:51AM 42.6853 -78.3858 73° East 486 559 29,000  Level Cleveland Center
11:52AM 42.7256 -78.2033 73° East 492 566 29,000  Level Cleveland Center
11:53AM 42.7675 -78.0264 72° East 492 566 29,000  Level Cleveland Center
11:54AM 42.8072 -77.8464 73° East 492 566 29,000  Level Cleveland Center
11:55AM 42.8464 -77.6636 74° East 498 573 29,000  Level Cleveland Center
11:56AM 42.8956 -77.4656 71° East 498 573 29,000  Level Cleveland Center
11:58AM 43.0272 -77.1783 58° Northeast 510 587 29,000  Level Boston Center
11:59AM 43.0947 -77.0044 62° Northeast 505 581 29,000  Level Boston Center
12:00PM 43.1619 -76.8328 62° Northeast 505 581 29,000  Level Boston Center
12:01PM 43.2269 -76.6608 63° Northeast 505 581 29,000  Level Boston Center
12:02PM 43.2936 -76.4883 62° Northeast 505 581 29,000  Level Boston Center
12:03PM 43.3581 -76.3156 63° Northeast 505 581 29,000  Level Boston Center
12:04PM 43.4242 -76.1425 62° Northeast 505 581 29,000  Level Boston Center
12:05PM 43.4792 -75.9856 64° Northeast 505 581 29,000  Level Boston Center
12:06PM 43.5447 -75.8147 62° Northeast 505 581 29,000  Level Boston Center
12:07PM 43.6081 -75.6403 63° Northeast 505 581 29,000  Level Boston Center
12:08PM 43.6733 -75.4631 63° Northeast 505 581 29,000  Level Boston Center
12:09PM 43.7364 -75.2850 64° Northeast 505 581 29,000  Level Boston Center
12:10PM 43.7878 -75.1436 63° Northeast 505 581 29,000 -720 Level Boston Center
12:11PM 43.8614 -74.9308 64° Northeast 505 581 27,600 -1,860 Descending Boston Center
12:12PM 43.9236 -74.7489 65° Northeast 505 581 25,300 -2,220 Descending Boston Center
12:13PM 43.9853 -74.5783 63° Northeast 500 575 23,100 -2,220 Descending Boston Center
12:14PM 44.0444 -74.4100 64° Northeast 494 568 20,900 -2,100 Descending Boston Center
12:15PM 44.1014 -74.2442 64° Northeast 478 550 19,000 -1,740 Descending Boston Center
12:16PM 44.1622 -74.0664 64° Northeast 473 544 17,400 -1,980 Descending Boston Center
12:17PM 44.2081 -73.9286 65° Northeast 455 524 15,000 -2,700 Descending Boston Center
12:18PM 44.2639 -73.7794 62° Northeast 438 504 12,100 -2,460 Descending Boston Center
12:19PM 44.3258 -73.6472 57° Northeast 390 449 10,200 -2,160 Descending Boston Center
12:20PM 44.3789 -73.5553 51° Northeast 334 384 7,800 -2,460 Descending Boston Center
12:21PM 44.4419 -73.4811 40° Northeast 293 337 5,200 -1,920 Descending Boston Center
12:22PM 44.4906 -73.4092 47° Northeast 280 322 4,100 -1,080 Descending Boston Center
12:23PM 44.5206 -73.3136 66° East 252 290 3,100 -1,020 Descending Boston Center